createdAt,value
2017-09-28T00:01:33.755Z,27.50
2017-09-28T00:04:02.378Z,28.03
2017-09-28T00:06:31.101Z,26.63
2017-09-28T00:08:59.680Z,28.20
2017-09-28T00:11:28.503Z,28.70
2017-09-28T00:13:57.380Z,27.63
2017-09-28T00:16:26.227Z,27.23
2017-09-28T00:18:54.885Z,27.27
2017-09-28T00:21:23.762Z,31.23
2017-09-28T00:23:53.019Z,27.80
2017-09-28T00:26:21.785Z,25.13
2017-09-28T00:28:50.824Z,27.97
2017-09-28T00:31:19.779Z,32.70
2017-09-28T00:33:48.639Z,26.67
2017-09-28T00:36:17.457Z,29.03
2017-09-28T00:38:46.060Z,26.07
2017-09-28T00:41:14.865Z,29.17
2017-09-28T00:43:43.945Z,27.07
2017-09-28T00:46:12.773Z,26.73
2017-09-28T00:48:42.030Z,26.10
2017-09-28T00:51:11.011Z,28.93
2017-09-28T00:53:39.901Z,30.63
2017-09-28T00:56:08.479Z,27.17
2017-09-28T00:58:38.011Z,30.50
2017-09-28T01:01:07.209Z,27.83
2017-09-28T01:03:36.058Z,32.20
2017-09-28T01:06:04.887Z,32.03
2017-09-28T01:08:33.730Z,32.10
2017-09-28T01:11:02.204Z,31.73
2017-09-28T01:13:30.927Z,24.50
2017-09-28T01:15:59.656Z,28.90
2017-09-28T01:18:28.241Z,32.33
2017-09-28T01:20:57.105Z,32.00
2017-09-28T01:23:26.040Z,30.43
2017-09-28T01:25:55.255Z,30.57
2017-09-28T01:28:24.485Z,38.10
2017-09-28T01:30:53.447Z,26.80
2017-09-28T01:33:22.518Z,30.23
2017-09-28T01:35:52.065Z,27.80
2017-09-28T01:38:20.690Z,27.93
2017-09-28T01:40:49.732Z,30.70
2017-09-28T01:43:18.243Z,32.43
2017-09-28T01:45:47.208Z,25.33
2017-09-28T01:48:16.098Z,26.20
2017-09-28T01:50:44.910Z,28.57
2017-09-28T01:53:13.599Z,30.37
2017-09-28T01:55:42.807Z,29.03
2017-09-28T01:58:11.468Z,28.27
2017-09-28T02:00:40.071Z,29.63
2017-09-28T02:03:08.871Z,24.60
2017-09-28T02:05:37.475Z,27.10
2017-09-28T02:08:06.709Z,26.30
2017-09-28T02:10:35.597Z,27.03
2017-09-28T02:13:04.858Z,33.37
2017-09-28T02:15:33.522Z,28.53
2017-09-28T02:18:02.875Z,24.43
2017-09-28T02:20:32.573Z,29.60
2017-09-28T02:23:02.847Z,25.37
2017-09-28T02:25:31.901Z,30.00
2017-09-28T02:28:00.816Z,26.87
2017-09-28T02:30:30.398Z,22.27
2017-09-28T02:32:59.060Z,25.73
2017-09-28T02:35:28.297Z,26.50
2017-09-28T02:37:57.702Z,26.80
2017-09-28T02:40:26.532Z,26.33
2017-09-28T02:42:55.484Z,27.93
2017-09-28T02:45:24.384Z,32.20
2017-09-28T02:47:53.468Z,29.90
2017-09-28T02:50:22.109Z,27.20
2017-09-28T02:52:51.187Z,26.40
2017-09-28T02:55:20.895Z,24.33
2017-09-28T02:57:50.065Z,29.53
2017-09-28T03:00:19.126Z,26.33
2017-09-28T03:02:47.879Z,28.27
2017-09-28T03:05:16.612Z,23.77
2017-09-28T03:07:45.522Z,23.93
2017-09-28T03:10:14.307Z,22.20
2017-09-28T03:12:43.233Z,23.80
2017-09-28T03:15:12.075Z,23.20
2017-09-28T03:17:41.512Z,32.33
2017-09-28T03:20:10.398Z,23.50
2017-09-28T03:22:39.698Z,25.77
2017-09-28T03:25:08.769Z,24.90
2017-09-28T03:27:37.358Z,24.27
2017-09-28T03:30:06.325Z,24.63
2017-09-28T03:32:40.423Z,26.00
2017-09-28T03:35:14.537Z,23.40
2017-09-28T03:37:48.989Z,21.87
2017-09-28T03:40:23.358Z,23.77
2017-09-28T03:42:52.036Z,26.47
2017-09-28T03:45:20.650Z,25.47
2017-09-28T03:47:50.039Z,22.50
2017-09-28T03:50:18.945Z,26.43
2017-09-28T03:52:47.566Z,22.70
2017-09-28T03:55:16.071Z,22.77
2017-09-28T03:57:44.959Z,25.43
2017-09-28T04:00:14.626Z,27.57
2017-09-28T04:02:43.151Z,28.43
2017-09-28T04:05:12.207Z,26.07
2017-09-28T04:07:40.997Z,22.53
2017-09-28T04:10:09.772Z,30.33
2017-09-28T04:12:38.528Z,25.30
2017-09-28T04:15:07.471Z,24.57
2017-09-28T04:17:36.062Z,30.63
2017-09-28T04:20:04.991Z,26.33
2017-09-28T04:22:33.629Z,23.60
2017-09-28T04:25:02.460Z,24.60
2017-09-28T04:27:31.871Z,24.97
2017-09-28T04:30:01.398Z,22.57
2017-09-28T04:32:30.363Z,26.40
2017-09-28T04:34:59.153Z,27.20
2017-09-28T04:37:27.734Z,22.10
2017-09-28T04:39:56.656Z,26.30
2017-09-28T04:42:25.532Z,24.63
2017-09-28T04:44:54.337Z,27.47
2017-09-28T04:47:23.504Z,28.77
2017-09-28T04:49:52.456Z,25.57
2017-09-28T04:52:21.094Z,21.13
2017-09-28T04:54:49.917Z,21.07
2017-09-28T04:57:18.977Z,22.03
2017-09-28T04:59:47.766Z,24.27
2017-09-28T05:02:16.373Z,25.90
2017-09-28T05:04:45.900Z,22.90
2017-09-28T05:07:14.729Z,23.10
2017-09-28T05:09:43.490Z,25.63
2017-09-28T05:12:12.441Z,22.37
2017-09-28T05:14:41.256Z,21.30
2017-09-28T05:17:10.585Z,22.13
2017-09-28T05:19:39.445Z,25.50
2017-09-28T05:22:08.277Z,27.20
2017-09-28T05:24:37.297Z,23.73
2017-09-28T05:27:06.338Z,28.03
2017-09-28T05:29:35.138Z,24.60
2017-09-28T05:32:04.738Z,26.93
2017-09-28T05:34:34.043Z,30.50
2017-09-28T05:37:02.788Z,20.47
2017-09-28T05:39:31.603Z,26.10
2017-09-28T05:42:00.344Z,29.60
2017-09-28T05:44:33.509Z,25.13
2017-09-28T05:47:02.687Z,30.03
2017-09-28T05:49:31.771Z,21.53
2017-09-28T05:52:00.574Z,26.80
2017-09-28T05:54:29.378Z,29.97
2017-09-28T05:56:58.050Z,26.70
2017-09-28T05:59:26.795Z,27.97
2017-09-28T06:01:56.741Z,30.47
2017-09-28T06:04:26.267Z,29.50
2017-09-28T06:06:55.688Z,28.33
2017-09-28T06:09:24.409Z,28.90
2017-09-28T06:11:53.184Z,27.93
2017-09-28T06:14:21.963Z,27.70
2017-09-28T06:16:50.706Z,21.70
2017-09-28T06:19:20.059Z,28.77
2017-09-28T06:21:48.993Z,25.23
2017-09-28T06:24:18.469Z,26.57
2017-09-28T06:26:47.863Z,23.20
2017-09-28T06:29:16.751Z,24.33
2017-09-28T06:31:45.837Z,23.77
2017-09-28T06:34:14.536Z,25.63
2017-09-28T06:36:43.103Z,19.80
2017-09-28T06:39:11.869Z,21.83
2017-09-28T06:41:40.823Z,33.10
2017-09-28T06:44:09.633Z,26.33
2017-09-28T06:46:38.482Z,22.73
2017-09-28T06:49:07.778Z,31.30
2017-09-28T06:51:36.307Z,30.20
2017-09-28T06:54:05.434Z,35.37
2017-09-28T06:56:34.454Z,30.47
2017-09-28T06:59:03.465Z,28.03
2017-09-28T07:01:33.448Z,27.93
2017-09-28T07:04:03.927Z,29.33
2017-09-28T07:06:33.110Z,30.83
2017-09-28T07:09:01.966Z,36.90
2017-09-28T07:11:31.479Z,29.33
2017-09-28T07:14:00.422Z,27.23
2017-09-28T07:16:29.296Z,24.07
2017-09-28T07:18:58.176Z,23.03
2017-09-28T07:21:27.378Z,21.17
2017-09-28T07:23:56.542Z,27.07
2017-09-28T07:26:25.700Z,26.13
2017-09-28T07:28:54.568Z,25.63
2017-09-28T07:31:23.548Z,28.70
2017-09-28T07:33:52.223Z,23.83
2017-09-28T07:36:20.973Z,23.40
2017-09-28T07:38:50.152Z,29.23
2017-09-28T07:41:19.679Z,22.77
2017-09-28T07:43:49.350Z,26.63
2017-09-28T07:46:19.070Z,25.63
2017-09-28T07:48:47.817Z,22.93
2017-09-28T07:51:16.613Z,23.13
2017-09-28T07:53:45.215Z,23.30
2017-09-28T07:56:14.314Z,28.27
2017-09-28T07:58:43.671Z,19.73
2017-09-28T08:01:12.894Z,24.00
2017-09-28T08:03:41.865Z,24.50
2017-09-28T08:06:10.638Z,23.93
2017-09-28T08:08:39.457Z,26.43
2017-09-28T08:11:08.034Z,30.60
2017-09-28T08:13:36.891Z,23.97
2017-09-28T08:16:06.422Z,23.47
2017-09-28T08:18:35.097Z,19.73
2017-09-28T08:21:05.488Z,25.10
2017-09-28T08:23:34.345Z,28.43
2017-09-28T08:26:03.067Z,25.07
2017-09-28T08:28:31.888Z,22.10
2017-09-28T08:31:01.065Z,29.30
2017-09-28T08:33:30.294Z,22.57
2017-09-28T08:35:59.188Z,19.40
2017-09-28T08:38:28.142Z,19.87
2017-09-28T08:40:56.912Z,21.70
2017-09-28T08:43:26.167Z,24.43
2017-09-28T08:45:55.066Z,23.47
2017-09-28T08:48:23.733Z,21.60
2017-09-28T08:50:52.471Z,26.40
2017-09-28T08:53:22.038Z,31.80
2017-09-28T08:55:51.074Z,22.00
2017-09-28T08:58:19.916Z,30.60
2017-09-28T09:00:48.689Z,23.73
2017-09-28T09:03:17.387Z,22.47
2017-09-28T09:05:46.526Z,24.63
2017-09-28T09:08:15.779Z,25.70
2017-09-28T09:10:44.494Z,22.70
2017-09-28T09:13:13.342Z,21.60
2017-09-28T09:15:42.035Z,26.27
2017-09-28T09:18:11.020Z,29.73
2017-09-28T09:20:39.777Z,23.83
2017-09-28T09:23:08.607Z,22.40
2017-09-28T09:25:37.247Z,22.60
2017-09-28T09:28:05.894Z,25.53
2017-09-28T09:30:34.764Z,24.23
2017-09-28T09:33:03.591Z,22.00
2017-09-28T09:35:32.352Z,22.13
2017-09-28T09:38:00.860Z,26.37
2017-09-28T09:40:34.246Z,24.60
2017-09-28T09:43:03.693Z,25.73
2017-09-28T09:45:32.453Z,23.40
2017-09-28T09:48:01.234Z,20.63
2017-09-28T09:50:30.180Z,25.57
2017-09-28T09:52:58.954Z,25.93
2017-09-28T09:55:27.493Z,22.17
2017-09-28T09:57:56.146Z,28.30
2017-09-28T10:00:25.130Z,30.80
2017-09-28T10:02:54.257Z,27.47
2017-09-28T10:05:22.935Z,24.37
2017-09-28T10:07:58.866Z,24.20
2017-09-28T10:10:36.393Z,24.17
2017-09-28T10:13:13.106Z,25.90
2017-09-28T10:16:02.655Z,24.20
2017-09-28T10:18:31.658Z,20.07
2017-09-28T10:21:00.661Z,24.47
2017-09-28T10:23:29.741Z,21.77
2017-09-28T10:25:58.857Z,23.50
2017-09-28T10:28:27.738Z,26.40
2017-09-28T10:30:56.647Z,22.03
2017-09-28T10:33:25.627Z,21.83
2017-09-28T10:35:54.617Z,21.63
2017-09-28T10:38:23.243Z,24.67
2017-09-28T10:40:52.171Z,27.60
2017-09-28T10:43:21.132Z,25.30
2017-09-28T10:45:49.975Z,26.13
2017-09-28T10:48:19.249Z,20.43
2017-09-28T10:50:48.014Z,27.73
2017-09-28T10:53:17.027Z,23.90
2017-09-28T10:55:45.900Z,25.83
2017-09-28T10:58:14.893Z,30.60
2017-09-28T11:00:43.918Z,32.27
2017-09-28T11:03:13.710Z,24.97
2017-09-28T11:05:42.431Z,24.10
2017-09-28T11:08:11.215Z,24.77
2017-09-28T11:10:40.117Z,31.37
2017-09-28T11:13:08.979Z,27.73
2017-09-28T11:15:37.858Z,23.77
2017-09-28T11:18:06.672Z,21.90
2017-09-28T11:20:35.934Z,30.07
2017-09-28T11:23:04.719Z,25.33
2017-09-28T11:25:33.553Z,28.20
2017-09-28T11:28:02.589Z,25.13
2017-09-28T11:30:31.568Z,22.33
2017-09-28T11:33:00.099Z,26.53
2017-09-28T11:35:28.751Z,26.70
2017-09-28T11:37:57.459Z,28.00
2017-09-28T11:40:25.980Z,24.93
2017-09-28T11:42:55.005Z,32.03
2017-09-28T11:45:23.308Z,24.70
2017-09-28T11:47:52.031Z,24.07
2017-09-28T11:50:25.123Z,24.57
2017-09-28T11:52:54.537Z,26.83
2017-09-28T11:55:23.518Z,25.90
2017-09-28T11:57:52.336Z,28.50
2017-09-28T12:00:21.758Z,20.00
2017-09-28T12:02:50.534Z,22.53
2017-09-28T12:05:19.668Z,24.13
2017-09-28T12:07:48.727Z,25.20
2017-09-28T12:10:17.634Z,31.43
2017-09-28T12:12:46.480Z,22.90
2017-09-28T12:15:15.426Z,23.90
2017-09-28T12:17:44.616Z,27.90
2017-09-28T12:20:13.220Z,21.70
2017-09-28T12:22:41.841Z,30.80
2017-09-28T12:25:10.627Z,27.33
2017-09-28T12:27:39.761Z,25.90
2017-09-28T12:30:08.706Z,26.53
2017-09-28T12:32:38.134Z,26.37
2017-09-28T12:35:09.422Z,24.77
2017-09-28T12:37:38.106Z,27.27
2017-09-28T12:40:06.753Z,30.23
2017-09-28T12:42:35.054Z,25.93
2017-09-28T12:45:04.753Z,25.30
2017-09-28T12:47:33.534Z,23.67
2017-09-28T12:50:02.438Z,23.80
2017-09-28T12:52:31.100Z,30.33
2017-09-28T12:54:59.944Z,29.60
2017-09-28T12:57:28.976Z,25.53
2017-09-28T12:59:57.911Z,26.00
2017-09-28T13:02:26.917Z,25.70
2017-09-28T13:04:55.785Z,33.47
2017-09-28T13:07:24.872Z,27.60
2017-09-28T13:09:53.673Z,26.53
2017-09-28T13:12:24.375Z,29.93
2017-09-28T13:14:54.856Z,28.30
2017-09-28T13:17:23.956Z,23.83
2017-09-28T13:19:52.805Z,27.33
2017-09-28T13:22:21.800Z,28.93
2017-09-28T13:24:50.554Z,36.20
2017-09-28T13:27:19.531Z,35.77
2017-09-28T13:29:48.565Z,28.03
2017-09-28T13:32:17.892Z,31.53
2017-09-28T13:34:46.996Z,29.17
2017-09-28T13:37:15.598Z,34.30
2017-09-28T13:39:44.317Z,32.87
2017-09-28T13:42:14.447Z,30.07
2017-09-28T13:44:43.680Z,34.47
2017-09-28T13:47:12.848Z,31.90
2017-09-28T13:49:41.779Z,30.40
2017-09-28T13:52:10.455Z,30.20
2017-09-28T13:54:39.379Z,30.73
2017-09-28T13:57:09.284Z,30.80
2017-09-28T13:59:38.123Z,31.30
2017-09-28T14:02:07.486Z,43.23
2017-09-28T14:04:36.676Z,36.80
2017-09-28T14:07:05.949Z,34.80
2017-09-28T14:09:35.072Z,30.80
2017-09-28T14:12:04.791Z,29.27
2017-09-28T14:14:34.050Z,31.57
2017-09-28T14:17:02.676Z,29.10
2017-09-28T14:19:31.818Z,35.20
2017-09-28T14:22:00.435Z,33.03
2017-09-28T14:24:29.437Z,29.57
2017-09-28T14:26:58.596Z,29.73
2017-09-28T14:29:27.801Z,31.67
2017-09-28T14:31:56.681Z,34.83
2017-09-28T14:34:25.892Z,31.30
2017-09-28T14:36:55.206Z,29.27
2017-09-28T14:39:24.509Z,31.73
2017-09-28T14:41:53.508Z,35.83
2017-09-28T14:44:22.825Z,33.00
2017-09-28T14:46:52.170Z,37.07
2017-09-28T14:49:20.827Z,29.40
2017-09-28T14:51:50.079Z,35.20
2017-09-28T14:54:19.645Z,30.50
2017-09-28T14:56:48.614Z,31.40
2017-09-28T14:59:17.536Z,31.70
2017-09-28T15:01:46.600Z,33.87
2017-09-28T15:04:15.511Z,32.93
2017-09-28T15:06:44.384Z,32.73
2017-09-28T15:09:13.113Z,32.40
2017-09-28T15:11:41.769Z,31.87
2017-09-28T15:14:11.748Z,33.70
2017-09-28T15:16:40.861Z,37.03
2017-09-28T15:19:10.110Z,29.60
2017-09-28T15:21:38.846Z,31.00
2017-09-28T15:24:07.705Z,35.20
2017-09-28T15:26:36.797Z,32.73
2017-09-28T15:29:05.494Z,32.27
2017-09-28T15:31:34.239Z,29.83
2017-09-28T15:34:03.402Z,30.60
2017-09-28T15:36:32.960Z,29.60
2017-09-28T15:39:02.733Z,33.37
2017-09-28T15:41:31.876Z,36.23
2017-09-28T15:44:00.586Z,27.87
2017-09-28T15:46:29.379Z,28.73
2017-09-28T15:48:57.981Z,31.83
2017-09-28T15:51:26.649Z,37.40
2017-09-28T15:53:55.787Z,37.73
2017-09-28T15:56:24.891Z,28.70
2017-09-28T15:58:53.814Z,30.20
2017-09-28T16:01:23.114Z,25.63
2017-09-28T16:03:51.852Z,30.10
2017-09-28T16:06:20.480Z,30.30
2017-09-28T16:08:49.686Z,37.10
2017-09-28T16:11:18.856Z,28.73
2017-09-28T16:13:47.422Z,27.80
2017-09-28T16:16:16.332Z,26.90
2017-09-28T16:18:45.227Z,33.53
2017-09-28T16:21:14.321Z,30.83
2017-09-28T16:23:43.563Z,30.13
2017-09-28T16:26:12.385Z,24.90
2017-09-28T16:28:41.079Z,24.77
2017-09-28T16:31:10.240Z,29.50
2017-09-28T16:33:39.463Z,28.70
2017-09-28T16:36:08.043Z,36.70
2017-09-28T16:38:36.931Z,24.80
2017-09-28T16:41:05.963Z,26.70
2017-09-28T16:43:35.807Z,28.50
2017-09-28T16:46:05.293Z,27.40
2017-09-28T16:48:34.241Z,32.00
2017-09-28T16:51:03.858Z,30.00
2017-09-28T16:53:32.737Z,35.67
2017-09-28T16:56:01.625Z,27.40
2017-09-28T16:58:30.498Z,27.83
2017-09-28T17:00:59.474Z,26.70
2017-09-28T17:03:28.471Z,25.53
2017-09-28T17:05:57.185Z,26.13
2017-09-28T17:08:26.361Z,30.37
2017-09-28T17:10:55.254Z,25.73
2017-09-28T17:13:24.036Z,32.90
2017-09-28T17:15:53.242Z,32.37
2017-09-28T17:18:22.385Z,29.83
2017-09-28T17:20:50.926Z,28.87
2017-09-28T17:23:19.987Z,29.23
2017-09-28T17:25:49.055Z,25.40
2017-09-28T17:28:18.090Z,27.53
2017-09-28T17:30:47.078Z,28.87
2017-09-28T17:33:15.981Z,30.67
2017-09-28T17:35:46.963Z,28.43
2017-09-28T17:38:16.542Z,29.27
2017-09-28T17:40:46.150Z,33.13
2017-09-28T17:43:15.058Z,32.13
2017-09-28T17:45:44.088Z,32.53
2017-09-28T17:48:12.865Z,27.70
2017-09-28T17:50:42.014Z,27.37
2017-09-28T17:53:10.948Z,30.43
2017-09-28T17:55:39.793Z,29.93
2017-09-28T17:58:09.111Z,29.80
2017-09-28T18:00:37.822Z,37.60
2017-09-28T18:03:06.713Z,33.50
2017-09-28T18:05:35.754Z,30.60
2017-09-28T18:08:04.791Z,32.17
2017-09-28T18:10:33.721Z,31.73
2017-09-28T18:13:02.871Z,36.30
2017-09-28T18:15:32.000Z,32.37
2017-09-28T18:18:01.409Z,30.70
2017-09-28T18:20:30.985Z,29.57
2017-09-28T18:23:01.042Z,33.10
2017-09-28T18:25:29.975Z,32.03
2017-09-28T18:27:58.844Z,33.07
2017-09-28T18:30:27.724Z,28.70
2017-09-28T18:32:57.584Z,31.90
2017-09-28T18:35:26.488Z,32.13
2017-09-28T18:37:55.191Z,31.60
2017-09-28T18:40:25.325Z,36.10
2017-09-28T18:42:54.061Z,34.10
2017-09-28T18:45:22.887Z,30.83
2017-09-28T18:47:51.933Z,31.57
2017-09-28T18:50:21.123Z,36.00
2017-09-28T18:52:50.136Z,35.47
2017-09-28T18:55:22.406Z,31.70
2017-09-28T18:57:51.056Z,36.40
2017-09-28T19:00:20.629Z,36.23
2017-09-28T19:02:49.948Z,32.00
2017-09-28T19:05:20.192Z,32.70
2017-09-28T19:07:49.739Z,38.27
2017-09-28T19:10:19.443Z,37.73
2017-09-28T19:12:48.435Z,37.27
2017-09-28T19:15:17.133Z,34.80
2017-09-28T19:17:46.655Z,33.33
2017-09-28T19:20:15.820Z,35.03
2017-09-28T19:22:44.708Z,40.93
2017-09-28T19:25:13.598Z,34.77
2017-09-28T19:27:42.797Z,37.50
2017-09-28T19:30:12.493Z,30.97
2017-09-28T19:32:41.127Z,36.80
2017-09-28T19:35:10.029Z,35.53
2017-09-28T19:37:38.858Z,36.60
2017-09-28T19:40:07.838Z,42.97
2017-09-28T19:42:36.829Z,39.83
2017-09-28T19:45:05.293Z,29.10
2017-09-28T19:47:34.421Z,42.33
2017-09-28T19:50:02.976Z,32.63
2017-09-28T19:52:31.546Z,33.17
2017-09-28T19:55:00.182Z,34.60
2017-09-28T19:57:28.984Z,39.90
2017-09-28T19:59:57.736Z,37.77
2017-09-28T20:02:29.152Z,37.27
2017-09-28T20:04:57.861Z,38.93
2017-09-28T20:07:27.240Z,34.53
2017-09-28T20:09:56.129Z,35.57
2017-09-28T20:12:25.272Z,40.93
2017-09-28T20:14:54.834Z,39.23
2017-09-28T20:17:24.495Z,33.20
2017-09-28T20:19:53.626Z,37.70
2017-09-28T20:22:22.523Z,37.93
2017-09-28T20:24:51.557Z,30.80
2017-09-28T20:27:20.804Z,37.47
2017-09-28T20:29:50.884Z,35.83
2017-09-28T20:32:19.619Z,31.20
2017-09-28T20:34:48.983Z,34.57
2017-09-28T20:37:17.826Z,37.13
2017-09-28T20:39:46.709Z,41.43
2017-09-28T20:42:15.923Z,91.23
2017-09-28T20:44:44.736Z,47.40
2017-09-28T20:47:13.681Z,61.73
2017-09-28T20:49:42.290Z,37.30
2017-09-28T20:52:11.251Z,40.67
2017-09-28T20:54:39.841Z,37.97
2017-09-28T20:57:09.246Z,38.90
2017-09-28T20:59:39.261Z,38.33
2017-09-28T21:02:08.934Z,41.67
2017-09-28T21:04:38.269Z,40.77
2017-09-28T21:07:07.263Z,37.60
2017-09-28T21:09:35.912Z,32.30
2017-09-28T21:12:04.831Z,36.97
2017-09-28T21:14:33.405Z,36.87
2017-09-28T21:17:02.238Z,37.77
2017-09-28T21:19:32.919Z,35.47
2017-09-28T21:22:02.235Z,37.07
2017-09-28T21:24:31.389Z,35.53
2017-09-28T21:27:00.316Z,45.30
2017-09-28T21:29:29.167Z,40.33
2017-09-28T21:31:58.180Z,40.60
2017-09-28T21:34:27.473Z,41.77
2017-09-28T21:36:56.143Z,32.37
2017-09-28T21:39:25.254Z,38.17
2017-09-28T21:41:54.280Z,37.53
2017-09-28T21:44:23.060Z,38.10
2017-09-28T21:46:52.269Z,39.53
2017-09-28T21:49:21.132Z,37.37
2017-09-28T21:51:50.471Z,37.83
2017-09-28T21:54:19.593Z,37.27
2017-09-28T21:56:48.362Z,40.50
2017-09-28T21:59:17.557Z,36.73
2017-09-28T22:01:47.183Z,33.73
2017-09-28T22:04:16.207Z,38.50
2017-09-28T22:06:45.130Z,39.27
2017-09-28T22:09:14.422Z,36.47
2017-09-28T22:11:43.599Z,36.60
2017-09-28T22:14:12.543Z,34.47
2017-09-28T22:16:41.382Z,35.40
2017-09-28T22:19:09.979Z,35.97
2017-09-28T22:21:38.914Z,46.47
2017-09-28T22:24:07.937Z,34.23
2017-09-28T22:26:36.982Z,37.40
2017-09-28T22:29:05.931Z,35.37
2017-09-28T22:31:34.639Z,39.10
2017-09-28T22:34:03.548Z,37.53
2017-09-28T22:36:32.957Z,43.53
2017-09-28T22:39:03.036Z,39.60
2017-09-28T22:41:32.727Z,38.87
2017-09-28T22:44:01.713Z,37.40
2017-09-28T22:46:30.692Z,38.43
2017-09-28T22:48:59.947Z,38.90
2017-09-28T22:51:30.800Z,57.97
2017-09-28T22:53:59.699Z,40.13
2017-09-28T22:56:28.626Z,44.40
2017-09-28T22:58:57.494Z,40.87
2017-09-28T23:01:26.362Z,42.20
2017-09-28T23:03:55.239Z,36.50
2017-09-28T23:06:23.946Z,41.00
2017-09-28T23:08:52.872Z,38.43
2017-09-28T23:11:21.766Z,44.00
2017-09-28T23:13:50.299Z,49.17
2017-09-28T23:16:18.866Z,45.40
2017-09-28T23:18:47.369Z,40.07
2017-09-28T23:21:16.274Z,42.70
2017-09-28T23:23:45.428Z,42.97
2017-09-28T23:26:14.484Z,42.97
2017-09-28T23:28:43.925Z,43.10
2017-09-28T23:31:12.801Z,43.73
2017-09-28T23:33:41.464Z,44.63
2017-09-28T23:36:10.390Z,41.40
2017-09-28T23:38:39.330Z,39.50
2017-09-28T23:41:08.279Z,43.80
2017-09-28T23:43:37.421Z,40.63
2017-09-28T23:46:06.431Z,40.77
2017-09-28T23:48:35.333Z,41.93
2017-09-28T23:51:04.216Z,46.87
2017-09-28T23:53:33.175Z,41.03
2017-09-28T23:58:36.709Z,41.73
